Harbor Springs, MI

4:43 PM EDT on June 26, 2017 (GMT -0400)
Harbor Springs

Weather History for KMGN - October, 2012

Change the Weather History Date:

Friday, October 26, 2012

  Actual Average (KPLN) Record (KPLN)
Temperature  
Mean Temperature 44 °F -  
Max Temperature 48 °F 53 °F 74 °F (1989)
Min Temperature 39 °F 35 °F 19 °F (1990)
Degree Days  
Heating Degree Days 22    
Moisture  
Dew Point 32 °F    
Average Humidity 66    
Maximum Humidity 88    
Minimum Humidity 53    
Precipitation  
Precipitation 0.00 in - - ()
Sea Level Pressure  
Sea Level Pressure 30.10 in    
Wind  
Wind Speed 10 mph (West)    
Max Wind Speed 16 mph    
Max Gust Speed 25 mph    
Visibility 9 miles    
Events Rain    
Averages and records for this station are not official NWS values.
T = Trace of Precipitation, MM = Missing Value Source: NWS Daily Summary

Daily Weather History Graph

Daily Weather History Graph

Search for Another Location

Airport or City:

Trip Planner

Search our weather history database for the weather conditions in past years. The results will help you decide how hot, cold, wet, or windy it might be!

Date:

Astronomy

Oct. 26, 2012 Rise Set
Actual Time 8:11 AM EDT 6:35 PM EDT
Civil Twilight 7:40 AM EDT 7:05 PM EDT
Nautical Twilight 7:06 AM EDT 7:40 PM EDT
Astronomical Twilight 6:31 AM EDT 8:14 PM EDT
Moon 4:56 PM EDT 4:59 AM EDT
Length of Visible Light 11h 24m
Length of Day
10h 23m
Waxing Gibbous, 91% of the Moon is Illuminated
Oct 26
Waxing Gibbous
Oct 29
Full
Nov 6
Last Quarter
Nov 13
New
Nov 20
First Quarter

Hourly Weather History & Observations

Time (EDT) Temp. Windchill Dew Point Humidity Pressure Visibility Wind Dir Wind Speed Gust Speed Precip Events Conditions
12:15 AM 48.4 °F - 44.6 °F 87% 29.75 in 7.0 mi West 10.4 mph 20.7 mph N/A Rain Heavy Rain
12:35 AM 46.2 °F 41.7 °F 42.4 °F 87% 29.75 in 5.0 mi West 9.2 mph 19.6 mph N/A Rain Rain
12:54 AM 46.2 °F 40.1 °F 42.3 °F 86% 29.79 in 10.0 mi West 13.8 mph 18.4 mph N/A Rain Rain
1:15 AM 46.2 °F 44.1 °F 42.4 °F 87% 29.81 in 10.0 mi West 4.6 mph - N/A Rain Light Rain
1:35 AM 46.2 °F 40.8 °F 41.9 °F 85% 29.82 in 7.0 mi West 11.5 mph 23.0 mph N/A   Overcast
1:54 AM 45.9 °F 41.7 °F 41.9 °F 86% 29.84 in 3.0 mi West 8.1 mph - N/A Rain Light Rain
2:15 AM 45.3 °F 40.6 °F 41.9 °F 88% 29.86 in 3.0 mi West 9.2 mph 19.6 mph N/A   Drizzle
2:35 AM 44.8 °F 41.6 °F 40.6 °F 85% 29.88 in 3.0 mi West 5.8 mph 16.1 mph N/A Rain Light Rain
2:55 AM 43.2 °F 35.6 °F 39.4 °F 86% 29.89 in 2.5 mi West 16.1 mph 23.0 mph N/A Rain Rain
3:15 AM 42.6 °F 36.8 °F 38.3 °F 85% 29.91 in 4.0 mi West 10.4 mph 16.1 mph N/A Rain Rain
3:34 AM 42.6 °F 35.9 °F 37.8 °F 83% 29.92 in 7.0 mi West 12.7 mph 20.7 mph N/A Rain Light Rain
3:55 AM 42.3 °F 35.5 °F 36.7 °F 81% 29.93 in 10.0 mi West 12.7 mph 17.3 mph N/A   Overcast
4:15 AM 42.1 °F 35.7 °F 35.6 °F 78% 29.94 in 10.0 mi West 11.5 mph 17.3 mph N/A   Overcast
4:34 AM 41.9 °F 35.9 °F 34.7 °F 76% 29.94 in 10.0 mi West 10.4 mph - N/A   Mostly Cloudy
4:55 AM 42.1 °F 37.1 °F 35.1 °F 76% 29.96 in 10.0 mi West 8.1 mph - N/A   Overcast
5:15 AM 42.1 °F 34.9 °F 34.2 °F 74% 29.97 in 10.0 mi West 13.8 mph 20.7 mph N/A   Overcast
5:34 AM 42.1 °F 35.7 °F 33.4 °F 71% 29.98 in 10.0 mi West 11.5 mph 18.4 mph N/A   Overcast
5:55 AM 42.1 °F 35.7 °F 33.1 °F 70% 29.99 in 10.0 mi West 11.5 mph 18.4 mph N/A   Overcast
6:15 AM 42.1 °F 36.1 °F 33.6 °F 72% 30.01 in 10.0 mi West 10.4 mph - N/A   Overcast
6:35 AM 42.1 °F 35.2 °F 32.7 °F 69% 30.02 in 10.0 mi West 12.7 mph 19.6 mph N/A   Overcast
6:55 AM 41.9 °F 35.4 °F 32.0 °F 68% 30.03 in 10.0 mi West 11.5 mph 16.1 mph N/A   Overcast
7:14 AM 41.5 °F 35.0 °F 31.8 °F 68% 30.04 in 10.0 mi West 11.5 mph 17.3 mph N/A   Overcast
7:35 AM 41.5 °F 35.0 °F 31.1 °F 66% 30.04 in 10.0 mi West 11.5 mph 18.4 mph N/A   Overcast
7:55 AM 41.2 °F 35.5 °F 30.6 °F 66% 30.05 in 10.0 mi West 9.2 mph - N/A   Overcast
8:14 AM 41.0 °F 34.7 °F 30.4 °F 66% 30.07 in 10.0 mi West 10.4 mph 17.3 mph N/A   Overcast
8:54 AM 41.0 °F 33.9 °F 28.2 °F 60% 30.09 in 10.0 mi West 12.7 mph 18.4 mph N/A   Overcast
9:55 AM 41.5 °F 35.4 °F 28.2 °F 59% 30.13 in 10.0 mi West 10.4 mph - N/A   Overcast
10:15 AM 41.9 °F 36.3 °F 27.7 °F 57% 30.14 in 10.0 mi West 9.2 mph - N/A   Overcast
10:34 AM 41.7 °F 38.0 °F 28.2 °F 59% 30.15 in 10.0 mi West 5.8 mph 16.1 mph N/A   Overcast
10:55 AM 42.1 °F 36.6 °F 27.5 °F 56% 30.16 in 10.0 mi West 9.2 mph 16.1 mph N/A   Overcast
11:15 AM 42.8 °F 36.2 °F 27.9 °F 56% 30.17 in 10.0 mi West 12.7 mph 25.3 mph N/A   Overcast
11:34 AM 43.7 °F 37.3 °F 28.0 °F 54% 30.17 in 10.0 mi West 12.7 mph 17.3 mph N/A   Overcast
11:55 AM 43.3 °F 38.6 °F 28.2 °F 55% 30.18 in 10.0 mi West 8.1 mph 17.3 mph N/A   Overcast
12:15 PM 45.0 °F 39.3 °F 28.8 °F 53% 30.18 in 10.0 mi West 11.5 mph 20.7 mph N/A   Mostly Cloudy
12:34 PM 45.1 °F 40.3 °F 29.5 °F 54% 30.19 in 10.0 mi West 9.2 mph 17.3 mph N/A   Overcast
12:55 PM 43.5 °F 37.5 °F 27.5 °F 53% 30.19 in 10.0 mi West 11.5 mph 20.7 mph N/A   Mostly Cloudy
1:15 PM 45.7 °F 39.8 °F 29.7 °F 54% 30.20 in 10.0 mi WSW 12.7 mph 18.4 mph N/A   Mostly Cloudy
1:34 PM 45.0 °F 38.5 °F 29.5 °F 55% 30.19 in 10.0 mi West 13.8 mph 20.7 mph N/A   Mostly Cloudy
1:55 PM 43.3 °F 38.1 °F 27.9 °F 54% 30.19 in 10.0 mi West 9.2 mph 19.6 mph N/A   Scattered Clouds
2:15 PM 46.0 °F 40.2 °F 30.2 °F 54% 30.19 in 10.0 mi West 12.7 mph 17.3 mph N/A   Scattered Clouds
2:34 PM 45.9 °F 40.0 °F 30.2 °F 54% 30.19 in 10.0 mi West 12.7 mph 18.4 mph N/A   Mostly Cloudy
2:55 PM 43.9 °F 37.9 °F 29.3 °F 57% 30.19 in 10.0 mi West 11.5 mph 20.7 mph N/A   Mostly Cloudy
3:15 PM 45.3 °F 39.7 °F 31.6 °F 59% 30.19 in 10.0 mi West 11.5 mph 18.4 mph N/A   Mostly Cloudy
3:34 PM 43.5 °F 38.3 °F 29.8 °F 59% 30.19 in 10.0 mi West 9.2 mph 18.4 mph N/A   Mostly Cloudy
3:55 PM 43.2 °F 37.9 °F 29.8 °F 59% 30.20 in 10.0 mi WSW 9.2 mph 16.1 mph N/A   Mostly Cloudy
4:15 PM 43.3 °F 39.2 °F 29.3 °F 58% 30.20 in 10.0 mi West 6.9 mph - N/A   Mostly Cloudy
4:34 PM 43.0 °F 36.8 °F 29.5 °F 59% 30.21 in 10.0 mi West 11.5 mph 16.1 mph N/A   Mostly Cloudy
4:55 PM 43.0 °F 38.8 °F 30.7 °F 62% 30.21 in 10.0 mi WSW 6.9 mph - N/A   Overcast
5:15 PM 43.0 °F 39.5 °F 30.0 °F 60% 30.21 in 10.0 mi WSW 5.8 mph - N/A   Overcast
5:34 PM 42.8 °F 37.0 °F 30.2 °F 61% 30.21 in 10.0 mi WSW 10.4 mph 18.4 mph N/A   Overcast
5:55 PM 42.3 °F 37.9 °F 30.2 °F 62% 30.22 in 10.0 mi WSW 6.9 mph - N/A   Overcast
6:15 PM 42.3 °F 37.9 °F 28.9 °F 59% 30.22 in 10.0 mi West 6.9 mph - N/A   Overcast
6:34 PM 42.3 °F 37.3 °F 28.9 °F 59% 30.23 in 10.0 mi West 8.1 mph - N/A   Overcast
6:55 PM 42.4 °F 38.1 °F 28.9 °F 59% 30.23 in 10.0 mi West 6.9 mph - N/A   Overcast
7:15 PM 42.4 °F 38.8 °F 28.4 °F 58% 30.23 in 10.0 mi WSW 5.8 mph - N/A   Overcast
7:34 PM 42.8 °F 37.0 °F 29.3 °F 59% 30.24 in 10.0 mi West 10.4 mph - N/A   Overcast
8:15 PM 42.4 °F 38.8 °F 28.0 °F 57% 30.24 in 10.0 mi West 5.8 mph - N/A   Overcast
8:35 PM 42.1 °F 37.1 °F 28.2 °F 58% 30.24 in 10.0 mi West 8.1 mph - N/A   Mostly Cloudy
9:15 PM 42.3 °F 38.6 °F 28.0 °F 57% 30.24 in 10.0 mi WNW 5.8 mph - N/A   Overcast
9:35 PM 42.1 °F 40.2 °F 28.4 °F 58% 30.24 in 10.0 mi NW 3.5 mph - N/A   Overcast
9:55 PM 41.0 °F - 28.2 °F 60% 30.24 in 10.0 mi Calm Calm - N/A   Scattered Clouds
10:14 PM 39.6 °F - 29.1 °F 66% 30.24 in 10.0 mi Calm Calm - N/A   Mostly Cloudy
10:35 PM 39.6 °F 36.3 °F 29.3 °F 67% 30.23 in 10.0 mi North 4.6 mph - N/A   Overcast
10:55 PM 39.6 °F - 28.9 °F 66% 30.23 in 10.0 mi Calm Calm - N/A   Mostly Cloudy
11:14 PM 39.7 °F 37.6 °F 28.9 °F 65% 30.24 in 10.0 mi NW 3.5 mph - N/A   Overcast
11:35 PM 41.5 °F 39.6 °F 28.8 °F 60% 30.24 in 10.0 mi North 3.5 mph - N/A   Overcast
11:55 PM 41.0 °F - 29.1 °F 63% 30.25 in 10.0 mi Calm Calm - N/A   Overcast